sensor_id;sensor_type;location;lat;lon;timestamp;temperature;humidity
20141;DHT22;10231;47.702;9.826;2022-09-09T00:06:50;14.40;99.90
20141;DHT22;10231;47.702;9.826;2022-09-09T00:09:21;14.40;99.90
20141;DHT22;10231;47.702;9.826;2022-09-09T00:12:02;14.40;99.90
20141;DHT22;10231;47.702;9.826;2022-09-09T00:14:58;14.40;99.90
20141;DHT22;10231;47.702;9.826;2022-09-09T00:20:16;14.30;99.90
20141;DHT22;10231;47.702;9.826;2022-09-09T00:23:00;14.30;99.90
20141;DHT22;10231;47.702;9.826;2022-09-09T00:25:39;14.30;99.90
20141;DHT22;10231;47.702;9.826;2022-09-09T00:28:18;14.30;99.90
20141;DHT22;10231;47.702;9.826;2022-09-09T00:30:44;14.30;99.90
20141;DHT22;10231;47.702;9.826;2022-09-09T00:33:15;14.20;99.90
20141;DHT22;10231;47.702;9.826;2022-09-09T00:35:49;14.30;99.90
20141;DHT22;10231;47.702;9.826;2022-09-09T00:38:35;14.20;99.90
20141;DHT22;10231;47.702;9.826;2022-09-09T00:41:09;14.30;99.90
20141;DHT22;10231;47.702;9.826;2022-09-09T00:43:38;14.30;99.90
20141;DHT22;10231;47.702;9.826;2022-09-09T00:55:11;14.40;99.90
20141;DHT22;10231;47.702;9.826;2022-09-09T00:57:41;14.40;99.90
20141;DHT22;10231;47.702;9.826;2022-09-09T01:00:31;14.30;99.90
20141;DHT22;10231;47.702;9.826;2022-09-09T01:09:05;14.40;99.90
20141;DHT22;10231;47.702;9.826;2022-09-09T01:11:51;14.30;99.90
20141;DHT22;10231;47.702;9.826;2022-09-09T01:14:30;14.20;99.90
20141;DHT22;10231;47.702;9.826;2022-09-09T01:17:14;14.10;99.90
20141;DHT22;10231;47.702;9.826;2022-09-09T01:22:26;14.10;99.90
20141;DHT22;10231;47.702;9.826;2022-09-09T01:25:20;14.10;99.90
20141;DHT22;10231;47.702;9.826;2022-09-09T01:27:48;14.20;99.90
20141;DHT22;10231;47.702;9.826;2022-09-09T01:30:17;14.30;99.90
20141;DHT22;10231;47.702;9.826;2022-09-09T01:32:43;14.20;99.90
20141;DHT22;10231;47.702;9.826;2022-09-09T01:37:40;14.00;99.90
20141;DHT22;10231;47.702;9.826;2022-09-09T01:40:07;13.90;99.90
20141;DHT22;10231;47.702;9.826;2022-09-09T01:42:33;13.90;99.90
20141;DHT22;10231;47.702;9.826;2022-09-09T01:44:59;13.90;99.90
20141;DHT22;10231;47.702;9.826;2022-09-09T01:47:24;13.90;99.90
20141;DHT22;10231;47.702;9.826;2022-09-09T01:49:50;14.00;99.90
20141;DHT22;10231;47.702;9.826;2022-09-09T01:52:16;13.90;99.90
20141;DHT22;10231;47.702;9.826;2022-09-09T01:54:41;14.00;99.90
20141;DHT22;10231;47.702;9.826;2022-09-09T01:57:29;13.90;99.90
20141;DHT22;10231;47.702;9.826;2022-09-09T02:00:13;13.90;99.90
20141;DHT22;10231;47.702;9.826;2022-09-09T02:05:44;13.80;99.90
20141;DHT22;10231;47.702;9.826;2022-09-09T02:08:35;13.80;99.90
20141;DHT22;10231;47.702;9.826;2022-09-09T02:11:13;13.80;99.90
20141;DHT22;10231;47.702;9.826;2022-09-09T02:13:40;13.80;99.90
20141;DHT22;10231;47.702;9.826;2022-09-09T02:16:23;13.80;99.90
20141;DHT22;10231;47.702;9.826;2022-09-09T02:19:00;13.80;99.90
20141;DHT22;10231;47.702;9.826;2022-09-09T02:21:29;13.80;99.90
20141;DHT22;10231;47.702;9.826;2022-09-09T02:23:57;13.90;99.90
20141;DHT22;10231;47.702;9.826;2022-09-09T02:26:25;13.80;99.90
20141;DHT22;10231;47.702;9.826;2022-09-09T02:28:53;13.90;99.90
20141;DHT22;10231;47.702;9.826;2022-09-09T02:31:22;13.90;99.90
20141;DHT22;10231;47.702;9.826;2022-09-09T02:33:56;13.90;99.90
20141;DHT22;10231;47.702;9.826;2022-09-09T02:36:24;13.90;99.90
20141;DHT22;10231;47.702;9.826;2022-09-09T02:38:52;13.80;99.90
20141;DHT22;10231;47.702;9.826;2022-09-09T02:41:32;13.60;99.90
20141;DHT22;10231;47.702;9.826;2022-09-09T02:43:59;13.60;99.90
20141;DHT22;10231;47.702;9.826;2022-09-09T02:49:16;13.50;99.90
20141;DHT22;10231;47.702;9.826;2022-09-09T02:52:05;13.50;99.90
20141;DHT22;10231;47.702;9.826;2022-09-09T02:54:33;13.50;99.90
20141;DHT22;10231;47.702;9.826;2022-09-09T02:57:22;13.60;99.90
20141;DHT22;10231;47.702;9.826;2022-09-09T02:59:49;13.60;99.90
20141;DHT22;10231;47.702;9.826;2022-09-09T03:02:15;13.60;99.90
20141;DHT22;10231;47.702;9.826;2022-09-09T03:04:41;13.60;99.90
20141;DHT22;10231;47.702;9.826;2022-09-09T03:07:10;13.60;99.90
20141;DHT22;10231;47.702;9.826;2022-09-09T03:09:35;13.60;99.90
20141;DHT22;10231;47.702;9.826;2022-09-09T03:12:01;13.60;99.90
20141;DHT22;10231;47.702;9.826;2022-09-09T03:14:27;13.60;99.90
20141;DHT22;10231;47.702;9.826;2022-09-09T03:16:53;13.60;99.90
20141;DHT22;10231;47.702;9.826;2022-09-09T03:19:20;13.70;99.90
20141;DHT22;10231;47.702;9.826;2022-09-09T03:21:46;13.70;99.90
20141;DHT22;10231;47.702;9.826;2022-09-09T03:24:13;13.60;99.90
20141;DHT22;10231;47.702;9.826;2022-09-09T03:26:39;13.60;99.90
20141;DHT22;10231;47.702;9.826;2022-09-09T03:29:06;13.60;99.90
20141;DHT22;10231;47.702;9.826;2022-09-09T03:31:33;13.60;99.90
20141;DHT22;10231;47.702;9.826;2022-09-09T03:33:59;13.60;99.90
20141;DHT22;10231;47.702;9.826;2022-09-09T03:36:26;13.70;99.90
20141;DHT22;10231;47.702;9.826;2022-09-09T03:38:52;13.60;99.90
20141;DHT22;10231;47.702;9.826;2022-09-09T03:41:19;13.60;99.90
20141;DHT22;10231;47.702;9.826;2022-09-09T03:43:45;13.70;99.90
20141;DHT22;10231;47.702;9.826;2022-09-09T03:46:10;13.70;99.90
20141;DHT22;10231;47.702;9.826;2022-09-09T03:48:36;13.60;99.90
20141;DHT22;10231;47.702;9.826;2022-09-09T03:51:02;13.70;99.90
20141;DHT22;10231;47.702;9.826;2022-09-09T03:53:29;13.70;99.90
20141;DHT22;10231;47.702;9.826;2022-09-09T03:55:56;13.70;99.90
20141;DHT22;10231;47.702;9.826;2022-09-09T04:01:00;13.60;99.90
20141;DHT22;10231;47.702;9.826;2022-09-09T04:03:26;13.60;99.90
20141;DHT22;10231;47.702;9.826;2022-09-09T04:05:52;13.60;99.90
20141;DHT22;10231;47.702;9.826;2022-09-09T04:08:19;13.70;99.90
20141;DHT22;10231;47.702;9.826;2022-09-09T04:10:46;13.70;99.90
20141;DHT22;10231;47.702;9.826;2022-09-09T04:13:12;13.70;99.90
20141;DHT22;10231;47.702;9.826;2022-09-09T04:15:39;13.80;99.90
20141;DHT22;10231;47.702;9.826;2022-09-09T04:18:05;13.90;99.90
20141;DHT22;10231;47.702;9.826;2022-09-09T04:20:31;13.90;99.90
20141;DHT22;10231;47.702;9.826;2022-09-09T04:22:56;13.90;99.90
20141;DHT22;10231;47.702;9.826;2022-09-09T04:25:22;13.90;99.90
20141;DHT22;10231;47.702;9.826;2022-09-09T04:27:48;13.90;99.90
20141;DHT22;10231;47.702;9.826;2022-09-09T04:30:18;13.90;99.90
20141;DHT22;10231;47.702;9.826;2022-09-09T04:32:43;13.90;99.90
20141;DHT22;10231;47.702;9.826;2022-09-09T04:35:09;13.90;99.90
20141;DHT22;10231;47.702;9.826;2022-09-09T04:37:34;13.90;99.90
20141;DHT22;10231;47.702;9.826;2022-09-09T04:40:00;14.00;99.90
20141;DHT22;10231;47.702;9.826;2022-09-09T04:42:27;13.90;99.90
20141;DHT22;10231;47.702;9.826;2022-09-09T04:44:53;14.00;99.90
20141;DHT22;10231;47.702;9.826;2022-09-09T04:47:19;14.00;99.90
20141;DHT22;10231;47.702;9.826;2022-09-09T04:49:45;14.10;99.90
20141;DHT22;10231;47.702;9.826;2022-09-09T04:52:10;14.10;99.90
20141;DHT22;10231;47.702;9.826;2022-09-09T04:54:36;14.10;99.90
20141;DHT22;10231;47.702;9.826;2022-09-09T04:57:01;14.10;99.90
20141;DHT22;10231;47.702;9.826;2022-09-09T04:59:27;14.20;99.90
20141;DHT22;10231;47.702;9.826;2022-09-09T05:01:52;14.30;99.90
20141;DHT22;10231;47.702;9.826;2022-09-09T05:04:20;14.20;99.90
20141;DHT22;10231;47.702;9.826;2022-09-09T05:06:46;14.30;99.90
20141;DHT22;10231;47.702;9.826;2022-09-09T05:09:11;14.30;99.90
20141;DHT22;10231;47.702;9.826;2022-09-09T05:11:37;14.30;99.90
20141;DHT22;10231;47.702;9.826;2022-09-09T05:14:03;14.30;99.90
20141;DHT22;10231;47.702;9.826;2022-09-09T05:16:29;14.40;99.90
20141;DHT22;10231;47.702;9.826;2022-09-09T05:18:55;14.40;99.90
20141;DHT22;10231;47.702;9.826;2022-09-09T05:21:22;14.40;99.90
20141;DHT22;10231;47.702;9.826;2022-09-09T05:23:49;14.50;99.90
20141;DHT22;10231;47.702;9.826;2022-09-09T05:26:18;14.50;99.90
20141;DHT22;10231;47.702;9.826;2022-09-09T05:28:45;14.60;99.90
20141;DHT22;10231;47.702;9.826;2022-09-09T05:31:12;14.60;99.90
20141;DHT22;10231;47.702;9.826;2022-09-09T05:33:39;14.60;99.90
20141;DHT22;10231;47.702;9.826;2022-09-09T05:36:11;14.70;99.90
20141;DHT22;10231;47.702;9.826;2022-09-09T05:38:39;14.70;99.90
20141;DHT22;10231;47.702;9.826;2022-09-09T05:41:05;14.70;99.90
20141;DHT22;10231;47.702;9.826;2022-09-09T05:43:31;14.70;99.90
20141;DHT22;10231;47.702;9.826;2022-09-09T05:46:03;14.80;99.90
20141;DHT22;10231;47.702;9.826;2022-09-09T05:48:34;14.80;99.90
20141;DHT22;10231;47.702;9.826;2022-09-09T05:51:01;14.80;99.90
20141;DHT22;10231;47.702;9.826;2022-09-09T05:53:28;14.80;99.90
20141;DHT22;10231;47.702;9.826;2022-09-09T05:56:06;14.90;99.90
20141;DHT22;10231;47.702;9.826;2022-09-09T05:58:32;14.90;99.90
20141;DHT22;10231;47.702;9.826;2022-09-09T06:01:06;14.90;99.90
20141;DHT22;10231;47.702;9.826;2022-09-09T06:03:36;14.90;99.90
20141;DHT22;10231;47.702;9.826;2022-09-09T06:06:05;14.90;99.90
20141;DHT22;10231;47.702;9.826;2022-09-09T06:08:32;15.00;99.90
20141;DHT22;10231;47.702;9.826;2022-09-09T06:11:03;15.10;99.90
20141;DHT22;10231;47.702;9.826;2022-09-09T06:13:29;15.00;99.90
20141;DHT22;10231;47.702;9.826;2022-09-09T06:15:55;15.00;99.90
20141;DHT22;10231;47.702;9.826;2022-09-09T06:18:20;15.10;99.90
20141;DHT22;10231;47.702;9.826;2022-09-09T06:21:00;15.20;99.90
20141;DHT22;10231;47.702;9.826;2022-09-09T06:23:32;15.20;99.90
20141;DHT22;10231;47.702;9.826;2022-09-09T06:26:10;15.30;99.90
20141;DHT22;10231;47.702;9.826;2022-09-09T06:28:37;15.30;99.90
20141;DHT22;10231;47.702;9.826;2022-09-09T06:31:05;15.30;99.90
20141;DHT22;10231;47.702;9.826;2022-09-09T06:33:36;15.40;99.90
20141;DHT22;10231;47.702;9.826;2022-09-09T06:36:04;15.40;99.90
20141;DHT22;10231;47.702;9.826;2022-09-09T06:38:30;15.50;99.90
20141;DHT22;10231;47.702;9.826;2022-09-09T06:40:58;15.50;99.90
20141;DHT22;10231;47.702;9.826;2022-09-09T06:43:27;15.50;99.90
20141;DHT22;10231;47.702;9.826;2022-09-09T06:46:10;15.50;99.90
20141;DHT22;10231;47.702;9.826;2022-09-09T06:48:36;15.50;99.90
20141;DHT22;10231;47.702;9.826;2022-09-09T06:51:04;15.50;99.90
20141;DHT22;10231;47.702;9.826;2022-09-09T06:53:31;15.60;99.90
20141;DHT22;10231;47.702;9.826;2022-09-09T06:56:00;15.60;99.90
20141;DHT22;10231;47.702;9.826;2022-09-09T06:58:27;15.60;99.90
20141;DHT22;10231;47.702;9.826;2022-09-09T07:01:00;15.60;99.90
20141;DHT22;10231;47.702;9.826;2022-09-09T07:03:26;15.60;99.90
20141;DHT22;10231;47.702;9.826;2022-09-09T07:05:55;15.60;99.90
20141;DHT22;10231;47.702;9.826;2022-09-09T07:08:21;15.60;99.90
20141;DHT22;10231;47.702;9.826;2022-09-09T07:10:47;15.60;99.90
20141;DHT22;10231;47.702;9.826;2022-09-09T07:13:15;15.60;99.90
20141;DHT22;10231;47.702;9.826;2022-09-09T07:15:41;15.60;99.90
20141;DHT22;10231;47.702;9.826;2022-09-09T07:18:07;15.60;99.90
20141;DHT22;10231;47.702;9.826;2022-09-09T07:20:32;15.60;99.90
20141;DHT22;10231;47.702;9.826;2022-09-09T07:22:58;15.60;99.90
20141;DHT22;10231;47.702;9.826;2022-09-09T07:25:24;15.60;99.90
20141;DHT22;10231;47.702;9.826;2022-09-09T07:27:53;15.60;99.90
20141;DHT22;10231;47.702;9.826;2022-09-09T07:30:20;15.50;99.90
20141;DHT22;10231;47.702;9.826;2022-09-09T07:32:45;15.50;99.90
20141;DHT22;10231;47.702;9.826;2022-09-09T07:35:11;15.50;99.90
20141;DHT22;10231;47.702;9.826;2022-09-09T07:37:37;15.60;99.90
20141;DHT22;10231;47.702;9.826;2022-09-09T07:40:03;15.60;99.90
20141;DHT22;10231;47.702;9.826;2022-09-09T07:42:30;15.60;99.90
20141;DHT22;10231;47.702;9.826;2022-09-09T07:44:56;15.60;99.90
20141;DHT22;10231;47.702;9.826;2022-09-09T07:47:21;15.70;99.90
20141;DHT22;10231;47.702;9.826;2022-09-09T07:49:47;15.70;99.90
20141;DHT22;10231;47.702;9.826;2022-09-09T07:52:15;15.70;99.90
20141;DHT22;10231;47.702;9.826;2022-09-09T07:54:41;15.70;99.90
20141;DHT22;10231;47.702;9.826;2022-09-09T07:57:07;15.70;99.90
20141;DHT22;10231;47.702;9.826;2022-09-09T07:59:33;15.70;99.90
20141;DHT22;10231;47.702;9.826;2022-09-09T08:01:58;15.80;99.90
20141;DHT22;10231;47.702;9.826;2022-09-09T08:04:28;15.80;99.90
20141;DHT22;10231;47.702;9.826;2022-09-09T08:06:57;15.80;99.90
20141;DHT22;10231;47.702;9.826;2022-09-09T08:09:23;15.80;99.90
20141;DHT22;10231;47.702;9.826;2022-09-09T08:11:54;15.80;99.90
20141;DHT22;10231;47.702;9.826;2022-09-09T08:14:22;15.80;99.90
20141;DHT22;10231;47.702;9.826;2022-09-09T08:16:49;15.80;99.90
20141;DHT22;10231;47.702;9.826;2022-09-09T08:19:16;15.80;99.90
20141;DHT22;10231;47.702;9.826;2022-09-09T08:21:43;15.90;99.90
20141;DHT22;10231;47.702;9.826;2022-09-09T08:24:10;15.90;99.90
20141;DHT22;10231;47.702;9.826;2022-09-09T08:26:41;15.90;99.90
20141;DHT22;10231;47.702;9.826;2022-09-09T08:29:08;15.90;99.90
20141;DHT22;10231;47.702;9.826;2022-09-09T08:31:46;15.90;99.90
20141;DHT22;10231;47.702;9.826;2022-09-09T08:34:12;16.00;99.90
20141;DHT22;10231;47.702;9.826;2022-09-09T08:36:40;16.00;99.90
20141;DHT22;10231;47.702;9.826;2022-09-09T08:39:09;16.00;99.90
20141;DHT22;10231;47.702;9.826;2022-09-09T08:47:13;16.10;99.90
20141;DHT22;10231;47.702;9.826;2022-09-09T08:55:52;16.10;99.90
20141;DHT22;10231;47.702;9.826;2022-09-09T08:58:23;16.20;99.90
20141;DHT22;10231;47.702;9.826;2022-09-09T09:03:59;16.30;99.90
20141;DHT22;10231;47.702;9.826;2022-09-09T09:09:37;16.30;99.90
20141;DHT22;10231;47.702;9.826;2022-09-09T09:12:22;16.30;99.90
20141;DHT22;10231;47.702;9.826;2022-09-09T09:14:48;16.30;99.90
20141;DHT22;10231;47.702;9.826;2022-09-09T09:17:20;16.30;99.90
20141;DHT22;10231;47.702;9.826;2022-09-09T09:19:49;16.30;99.90
20141;DHT22;10231;47.702;9.826;2022-09-09T09:25:08;16.30;99.90
20141;DHT22;10231;47.702;9.826;2022-09-09T09:27:42;16.30;99.90
20141;DHT22;10231;47.702;9.826;2022-09-09T09:30:18;16.40;99.90
20141;DHT22;10231;47.702;9.826;2022-09-09T09:32:53;16.40;99.90
20141;DHT22;10231;47.702;9.826;2022-09-09T09:35:19;16.30;99.90
20141;DHT22;10231;47.702;9.826;2022-09-09T09:37:45;16.40;99.90
20141;DHT22;10231;47.702;9.826;2022-09-09T09:43:00;16.40;99.90
20141;DHT22;10231;47.702;9.826;2022-09-09T09:45:41;16.40;99.90
20141;DHT22;10231;47.702;9.826;2022-09-09T09:48:10;16.50;99.90
20141;DHT22;10231;47.702;9.826;2022-09-09T09:50:54;16.60;99.90
20141;DHT22;10231;47.702;9.826;2022-09-09T09:53:31;16.60;99.90
20141;DHT22;10231;47.702;9.826;2022-09-09T09:56:08;16.70;99.90
20141;DHT22;10231;47.702;9.826;2022-09-09T10:01:40;16.70;99.90
20141;DHT22;10231;47.702;9.826;2022-09-09T10:04:17;16.70;99.90
20141;DHT22;10231;47.702;9.826;2022-09-09T10:06:44;16.80;99.90
20141;DHT22;10231;47.702;9.826;2022-09-09T10:09:27;16.80;99.90
20141;DHT22;10231;47.702;9.826;2022-09-09T10:14:35;16.80;99.90
20141;DHT22;10231;47.702;9.826;2022-09-09T10:20:15;16.90;99.90
20141;DHT22;10231;47.702;9.826;2022-09-09T10:22:57;16.90;99.90
20141;DHT22;10231;47.702;9.826;2022-09-09T10:28:36;17.10;99.90
20141;DHT22;10231;47.702;9.826;2022-09-09T10:34:23;17.30;99.90
20141;DHT22;10231;47.702;9.826;2022-09-09T10:36:53;17.40;99.90
20141;DHT22;10231;47.702;9.826;2022-09-09T10:39:37;17.40;99.90
20141;DHT22;10231;47.702;9.826;2022-09-09T10:42:09;17.40;99.90
20141;DHT22;10231;47.702;9.826;2022-09-09T10:47:19;17.40;99.90
20141;DHT22;10231;47.702;9.826;2022-09-09T10:49:54;17.40;99.90
20141;DHT22;10231;47.702;9.826;2022-09-09T10:52:44;17.50;99.90
20141;DHT22;10231;47.702;9.826;2022-09-09T10:55:14;17.50;99.90
20141;DHT22;10231;47.702;9.826;2022-09-09T10:57:44;17.50;99.90
20141;DHT22;10231;47.702;9.826;2022-09-09T11:00:19;17.50;99.90
20141;DHT22;10231;47.702;9.826;2022-09-09T11:02:48;17.50;99.90
20141;DHT22;10231;47.702;9.826;2022-09-09T11:05:19;17.60;99.90
20141;DHT22;10231;47.702;9.826;2022-09-09T11:07:56;17.80;99.90
20141;DHT22;10231;47.702;9.826;2022-09-09T11:10:25;18.00;99.90
20141;DHT22;10231;47.702;9.826;2022-09-09T11:12:59;18.20;99.90
20141;DHT22;10231;47.702;9.826;2022-09-09T11:15:36;18.20;99.90
20141;DHT22;10231;47.702;9.826;2022-09-09T11:18:07;18.40;99.90
20141;DHT22;10231;47.702;9.826;2022-09-09T11:20:36;18.40;99.90
20141;DHT22;10231;47.702;9.826;2022-09-09T11:23:13;18.30;99.90
20141;DHT22;10231;47.702;9.826;2022-09-09T11:25:43;18.20;99.90
20141;DHT22;10231;47.702;9.826;2022-09-09T11:39:51;18.40;99.90
20141;DHT22;10231;47.702;9.826;2022-09-09T11:42:23;18.50;99.90
20141;DHT22;10231;47.702;9.826;2022-09-09T11:44:49;18.50;99.90
20141;DHT22;10231;47.702;9.826;2022-09-09T11:47:27;18.30;99.90
20141;DHT22;10231;47.702;9.826;2022-09-09T11:52:46;18.30;99.90
20141;DHT22;10231;47.702;9.826;2022-09-09T11:55:26;18.30;99.90
20141;DHT22;10231;47.702;9.826;2022-09-09T11:58:03;18.40;99.90
20141;DHT22;10231;47.702;9.826;2022-09-09T12:02:58;18.40;99.90
20141;DHT22;10231;47.702;9.826;2022-09-09T12:05:36;18.50;99.90
20141;DHT22;10231;47.702;9.826;2022-09-09T12:08:04;18.40;99.90
20141;DHT22;10231;47.702;9.826;2022-09-09T12:10:33;18.40;99.90
20141;DHT22;10231;47.702;9.826;2022-09-09T12:13:27;18.30;99.90
20141;DHT22;10231;47.702;9.826;2022-09-09T12:15:55;18.30;99.90
20141;DHT22;10231;47.702;9.826;2022-09-09T12:21:14;18.30;99.90
20141;DHT22;10231;47.702;9.826;2022-09-09T12:23:55;18.30;99.90
20141;DHT22;10231;47.702;9.826;2022-09-09T12:29:25;18.30;99.90
20141;DHT22;10231;47.702;9.826;2022-09-09T12:32:15;18.60;99.90
20141;DHT22;10231;47.702;9.826;2022-09-09T12:34:54;18.50;99.90
20141;DHT22;10231;47.702;9.826;2022-09-09T12:37:37;18.50;99.90
20141;DHT22;10231;47.702;9.826;2022-09-09T12:40:04;18.50;99.90
20141;DHT22;10231;47.702;9.826;2022-09-09T12:42:31;18.60;99.90
20141;DHT22;10231;47.702;9.826;2022-09-09T12:45:03;18.60;99.90
20141;DHT22;10231;47.702;9.826;2022-09-09T12:47:54;18.60;99.90
20141;DHT22;10231;47.702;9.826;2022-09-09T12:50:24;18.60;99.90
20141;DHT22;10231;47.702;9.826;2022-09-09T12:52:53;18.50;99.90
20141;DHT22;10231;47.702;9.826;2022-09-09T12:55:25;18.40;99.90
20141;DHT22;10231;47.702;9.826;2022-09-09T12:57:53;18.20;99.90
20141;DHT22;10231;47.702;9.826;2022-09-09T13:00:24;18.10;99.90
20141;DHT22;10231;47.702;9.826;2022-09-09T13:02:55;18.00;99.90
20141;DHT22;10231;47.702;9.826;2022-09-09T13:07:50;18.00;99.90
20141;DHT22;10231;47.702;9.826;2022-09-09T13:10:24;18.10;99.90
20141;DHT22;10231;47.702;9.826;2022-09-09T13:12:52;18.10;99.90
20141;DHT22;10231;47.702;9.826;2022-09-09T13:15:22;18.20;99.90
20141;DHT22;10231;47.702;9.826;2022-09-09T13:17:52;18.20;99.90
20141;DHT22;10231;47.702;9.826;2022-09-09T13:20:19;18.30;99.90
20141;DHT22;10231;47.702;9.826;2022-09-09T13:22:48;18.50;99.90
20141;DHT22;10231;47.702;9.826;2022-09-09T13:25:18;18.70;99.90
20141;DHT22;10231;47.702;9.826;2022-09-09T13:28:04;19.00;99.90
20141;DHT22;10231;47.702;9.826;2022-09-09T13:30:37;19.10;99.90
20141;DHT22;10231;47.702;9.826;2022-09-09T13:33:20;19.30;99.90
20141;DHT22;10231;47.702;9.826;2022-09-09T13:38:17;19.60;99.90
20141;DHT22;10231;47.702;9.826;2022-09-09T13:40:57;19.70;99.90
20141;DHT22;10231;47.702;9.826;2022-09-09T13:43:25;19.80;99.90
20141;DHT22;10231;47.702;9.826;2022-09-09T13:46:00;19.80;99.90
20141;DHT22;10231;47.702;9.826;2022-09-09T13:48:27;19.90;99.90
20141;DHT22;10231;47.702;9.826;2022-09-09T13:50:58;20.10;99.90
20141;DHT22;10231;47.702;9.826;2022-09-09T13:53:24;20.20;99.90
20141;DHT22;10231;47.702;9.826;2022-09-09T13:55:50;20.30;99.90
20141;DHT22;10231;47.702;9.826;2022-09-09T13:58:17;20.30;99.90
20141;DHT22;10231;47.702;9.826;2022-09-09T14:00:47;20.40;99.90
20141;DHT22;10231;47.702;9.826;2022-09-09T14:03:13;20.60;99.90
20141;DHT22;10231;47.702;9.826;2022-09-09T14:05:39;20.70;99.90
20141;DHT22;10231;47.702;9.826;2022-09-09T14:08:06;20.90;99.90
20141;DHT22;10231;47.702;9.826;2022-09-09T14:10:32;21.00;99.90
20141;DHT22;10231;47.702;9.826;2022-09-09T14:13:01;21.10;99.90
20141;DHT22;10231;47.702;9.826;2022-09-09T14:15:26;21.10;99.90
20141;DHT22;10231;47.702;9.826;2022-09-09T14:17:52;21.10;99.90
20141;DHT22;10231;47.702;9.826;2022-09-09T14:20:18;21.20;99.90
20141;DHT22;10231;47.702;9.826;2022-09-09T14:22:44;21.30;99.90
20141;DHT22;10231;47.702;9.826;2022-09-09T14:25:10;21.40;99.90
20141;DHT22;10231;47.702;9.826;2022-09-09T14:27:38;21.50;99.90
20141;DHT22;10231;47.702;9.826;2022-09-09T14:30:05;21.60;99.90
20141;DHT22;10231;47.702;9.826;2022-09-09T14:32:31;21.70;99.90
20141;DHT22;10231;47.702;9.826;2022-09-09T14:34:57;21.70;99.90
20141;DHT22;10231;47.702;9.826;2022-09-09T14:37:22;21.80;99.90
20141;DHT22;10231;47.702;9.826;2022-09-09T14:39:48;22.00;99.90
20141;DHT22;10231;47.702;9.826;2022-09-09T14:42:16;22.20;99.90
20141;DHT22;10231;47.702;9.826;2022-09-09T14:44:41;22.40;99.90
20141;DHT22;10231;47.702;9.826;2022-09-09T14:47:07;22.50;99.90
20141;DHT22;10231;47.702;9.826;2022-09-09T14:49:36;22.60;99.90
20141;DHT22;10231;47.702;9.826;2022-09-09T14:52:03;22.80;99.90
20141;DHT22;10231;47.702;9.826;2022-09-09T14:54:29;23.10;99.90
20141;DHT22;10231;47.702;9.826;2022-09-09T14:56:55;23.30;99.90
20141;DHT22;10231;47.702;9.826;2022-09-09T14:59:22;23.50;99.90
20141;DHT22;10231;47.702;9.826;2022-09-09T15:01:48;23.70;99.90
20141;DHT22;10231;47.702;9.826;2022-09-09T15:04:13;23.80;99.90
20141;DHT22;10231;47.702;9.826;2022-09-09T15:06:40;24.00;99.90
20141;DHT22;10231;47.702;9.826;2022-09-09T15:09:08;24.10;99.30
20141;DHT22;10231;47.702;9.826;2022-09-09T15:11:36;24.20;99.90
20141;DHT22;10231;47.702;9.826;2022-09-09T15:14:05;24.20;99.00
20141;DHT22;10231;47.702;9.826;2022-09-09T15:16:31;24.00;99.20
20141;DHT22;10231;47.702;9.826;2022-09-09T15:18:59;23.50;99.20
20141;DHT22;10231;47.702;9.826;2022-09-09T15:21:29;22.80;99.90
20141;DHT22;10231;47.702;9.826;2022-09-09T15:23:56;22.20;99.90
20141;DHT22;10231;47.702;9.826;2022-09-09T15:26:22;21.70;99.90
20141;DHT22;10231;47.702;9.826;2022-09-09T15:28:48;21.30;99.90
20141;DHT22;10231;47.702;9.826;2022-09-09T15:31:25;21.00;99.90
20141;DHT22;10231;47.702;9.826;2022-09-09T15:34:03;21.50;99.90
20141;DHT22;10231;47.702;9.826;2022-09-09T15:39:04;23.20;99.90
20141;DHT22;10231;47.702;9.826;2022-09-09T15:41:30;24.30;99.10
20141;DHT22;10231;47.702;9.826;2022-09-09T15:43:57;25.60;96.70
20141;DHT22;10231;47.702;9.826;2022-09-09T15:46:34;26.90;94.30
20141;DHT22;10231;47.702;9.826;2022-09-09T15:49:07;27.70;92.60
20141;DHT22;10231;47.702;9.826;2022-09-09T15:51:34;29.00;88.60
20141;DHT22;10231;47.702;9.826;2022-09-09T15:54:00;28.80;86.70
20141;DHT22;10231;47.702;9.826;2022-09-09T15:56:27;27.70;88.80
20141;DHT22;10231;47.702;9.826;2022-09-09T15:58:55;26.00;91.40
20141;DHT22;10231;47.702;9.826;2022-09-09T16:01:21;24.80;93.40
20141;DHT22;10231;47.702;9.826;2022-09-09T16:03:47;23.80;94.70
20141;DHT22;10231;47.702;9.826;2022-09-09T16:06:14;23.10;96.00
20141;DHT22;10231;47.702;9.826;2022-09-09T16:08:41;22.40;98.30
20141;DHT22;10231;47.702;9.826;2022-09-09T16:11:16;21.90;99.20
20141;DHT22;10231;47.702;9.826;2022-09-09T16:13:43;21.50;99.90
20141;DHT22;10231;47.702;9.826;2022-09-09T16:16:12;21.30;99.90
20141;DHT22;10231;47.702;9.826;2022-09-09T16:18:43;21.30;99.90
20141;DHT22;10231;47.702;9.826;2022-09-09T16:21:19;21.70;99.90
20141;DHT22;10231;47.702;9.826;2022-09-09T16:23:45;21.70;99.90
20141;DHT22;10231;47.702;9.826;2022-09-09T16:26:13;21.50;99.90
20141;DHT22;10231;47.702;9.826;2022-09-09T16:28:39;21.30;99.90
20141;DHT22;10231;47.702;9.826;2022-09-09T16:31:06;21.20;99.90
20141;DHT22;10231;47.702;9.826;2022-09-09T16:33:32;21.00;99.90
20141;DHT22;10231;47.702;9.826;2022-09-09T16:35:57;20.70;99.90
20141;DHT22;10231;47.702;9.826;2022-09-09T16:38:23;20.50;99.90
20141;DHT22;10231;47.702;9.826;2022-09-09T16:40:49;20.40;99.90
20141;DHT22;10231;47.702;9.826;2022-09-09T16:43:15;20.40;99.90
20141;DHT22;10231;47.702;9.826;2022-09-09T16:45:42;20.30;99.90
20141;DHT22;10231;47.702;9.826;2022-09-09T16:48:08;20.10;99.90
20141;DHT22;10231;47.702;9.826;2022-09-09T16:50:34;20.10;99.90
20141;DHT22;10231;47.702;9.826;2022-09-09T16:52:59;20.00;99.90
20141;DHT22;10231;47.702;9.826;2022-09-09T16:55:28;19.90;99.90
20141;DHT22;10231;47.702;9.826;2022-09-09T16:57:53;19.90;99.90
20141;DHT22;10231;47.702;9.826;2022-09-09T17:00:19;19.80;99.90
20141;DHT22;10231;47.702;9.826;2022-09-09T17:02:44;19.70;99.90
20141;DHT22;10231;47.702;9.826;2022-09-09T17:05:10;19.60;99.90
20141;DHT22;10231;47.702;9.826;2022-09-09T17:07:37;19.60;99.90
20141;DHT22;10231;47.702;9.826;2022-09-09T17:10:04;19.50;99.90
20141;DHT22;10231;47.702;9.826;2022-09-09T17:12:31;19.50;99.90
20141;DHT22;10231;47.702;9.826;2022-09-09T17:14:56;19.40;99.90
20141;DHT22;10231;47.702;9.826;2022-09-09T17:17:24;19.40;99.90
20141;DHT22;10231;47.702;9.826;2022-09-09T17:19:49;19.40;99.90
20141;DHT22;10231;47.702;9.826;2022-09-09T17:22:15;19.30;99.90
20141;DHT22;10231;47.702;9.826;2022-09-09T17:24:41;19.30;99.90
20141;DHT22;10231;47.702;9.826;2022-09-09T17:27:07;19.20;99.90
20141;DHT22;10231;47.702;9.826;2022-09-09T17:29:33;19.00;99.90
20141;DHT22;10231;47.702;9.826;2022-09-09T17:32:01;19.00;99.90
20141;DHT22;10231;47.702;9.826;2022-09-09T17:34:27;18.90;99.90